sensor_id;sensor_type;location;lat;lon;timestamp;P1;durP1;ratioP1;P2;durP2;ratioP2
10230;SDS011;62604;49.432;8.680;2022-09-09T00:00:49;4.10;;;3.80;;
10230;SDS011;62604;49.432;8.680;2022-09-09T00:03:24;5.47;;;3.97;;
10230;SDS011;62604;49.432;8.680;2022-09-09T00:05:55;3.87;;;3.67;;
10230;SDS011;62604;49.432;8.680;2022-09-09T00:08:32;2.93;;;2.83;;
10230;SDS011;62604;49.432;8.680;2022-09-09T00:11:05;4.30;;;3.90;;
10230;SDS011;62604;49.432;8.680;2022-09-09T00:13:39;4.37;;;4.00;;
10230;SDS011;62604;49.432;8.680;2022-09-09T00:16:11;4.40;;;3.95;;
10230;SDS011;62604;49.432;8.680;2022-09-09T00:18:48;3.90;;;3.70;;
10230;SDS011;62604;49.432;8.680;2022-09-09T00:21:23;5.67;;;3.83;;
10230;SDS011;62604;49.432;8.680;2022-09-09T00:23:57;3.73;;;3.13;;
10230;SDS011;62604;49.432;8.680;2022-09-09T00:26:27;3.67;;;3.47;;
10230;SDS011;62604;49.432;8.680;2022-09-09T00:29:03;7.53;;;3.87;;
10230;SDS011;62604;49.432;8.680;2022-09-09T00:31:48;5.13;;;3.87;;
10230;SDS011;62604;49.432;8.680;2022-09-09T00:34:18;3.80;;;3.50;;
10230;SDS011;62604;49.432;8.680;2022-09-09T00:36:47;5.13;;;3.60;;
10230;SDS011;62604;49.432;8.680;2022-09-09T00:39:23;3.67;;;3.47;;
10230;SDS011;62604;49.432;8.680;2022-09-09T00:41:58;5.65;;;3.60;;
10230;SDS011;62604;49.432;8.680;2022-09-09T00:44:38;4.30;;;3.90;;
10230;SDS011;62604;49.432;8.680;2022-09-09T00:47:21;4.13;;;3.78;;
10230;SDS011;62604;49.432;8.680;2022-09-09T00:50:05;3.72;;;3.53;;
10230;SDS011;62604;49.432;8.680;2022-09-09T00:52:43;4.10;;;3.78;;
10230;SDS011;62604;49.432;8.680;2022-09-09T00:55:25;3.97;;;3.67;;
10230;SDS011;62604;49.432;8.680;2022-09-09T00:57:59;3.85;;;3.50;;
10230;SDS011;62604;49.432;8.680;2022-09-09T01:00:27;4.05;;;3.75;;
10230;SDS011;62604;49.432;8.680;2022-09-09T01:03:02;4.13;;;3.83;;
10230;SDS011;62604;49.432;8.680;2022-09-09T01:05:48;5.00;;;4.22;;
10230;SDS011;62604;49.432;8.680;2022-09-09T01:08:27;3.78;;;3.58;;
10230;SDS011;62604;49.432;8.680;2022-09-09T01:11:07;4.10;;;3.80;;
10230;SDS011;62604;49.432;8.680;2022-09-09T01:13:42;4.07;;;3.83;;
10230;SDS011;62604;49.432;8.680;2022-09-09T01:16:11;4.00;;;3.78;;
10230;SDS011;62604;49.432;8.680;2022-09-09T01:18:40;4.13;;;3.90;;
10230;SDS011;62604;49.432;8.680;2022-09-09T01:21:15;4.50;;;4.10;;
10230;SDS011;62604;49.432;8.680;2022-09-09T01:23:54;3.80;;;3.60;;
10230;SDS011;62604;49.432;8.680;2022-09-09T01:26:40;4.30;;;3.97;;
10230;SDS011;62604;49.432;8.680;2022-09-09T01:29:08;4.38;;;4.07;;
10230;SDS011;62604;49.432;8.680;2022-09-09T01:31:38;4.10;;;3.80;;
10230;SDS011;62604;49.432;8.680;2022-09-09T01:34:10;4.47;;;4.10;;
10230;SDS011;62604;49.432;8.680;2022-09-09T01:36:38;6.15;;;4.20;;
10230;SDS011;62604;49.432;8.680;2022-09-09T01:39:09;4.32;;;3.65;;
10230;SDS011;62604;49.432;8.680;2022-09-09T01:41:36;5.72;;;4.32;;
10230;SDS011;62604;49.432;8.680;2022-09-09T01:44:06;5.03;;;4.50;;
10230;SDS011;62604;49.432;8.680;2022-09-09T01:46:34;4.30;;;4.00;;
10230;SDS011;62604;49.432;8.680;2022-09-09T01:49:02;4.55;;;4.15;;
10230;SDS011;62604;49.432;8.680;2022-09-09T01:51:31;4.27;;;4.07;;
10230;SDS011;62604;49.432;8.680;2022-09-09T01:53:57;5.20;;;4.70;;
10230;SDS011;62604;49.432;8.680;2022-09-09T01:56:28;4.40;;;4.10;;
10230;SDS011;62604;49.432;8.680;2022-09-09T01:59:11;4.70;;;4.17;;
10230;SDS011;62604;49.432;8.680;2022-09-09T02:01:48;4.25;;;3.95;;
10230;SDS011;62604;49.432;8.680;2022-09-09T02:04:27;4.90;;;4.20;;
10230;SDS011;62604;49.432;8.680;2022-09-09T02:07:02;4.82;;;4.10;;
10230;SDS011;62604;49.432;8.680;2022-09-09T02:09:37;4.57;;;4.30;;
10230;SDS011;62604;49.432;8.680;2022-09-09T02:12:08;4.95;;;4.13;;
10230;SDS011;62604;49.432;8.680;2022-09-09T02:14:42;6.13;;;4.00;;
10230;SDS011;62604;49.432;8.680;2022-09-09T02:17:14;4.72;;;4.03;;
10230;SDS011;62604;49.432;8.680;2022-09-09T02:19:45;4.40;;;4.20;;
10230;SDS011;62604;49.432;8.680;2022-09-09T02:22:16;4.70;;;4.40;;
10230;SDS011;62604;49.432;8.680;2022-09-09T02:24:45;4.32;;;4.03;;
10230;SDS011;62604;49.432;8.680;2022-09-09T02:27:14;4.47;;;3.90;;
10230;SDS011;62604;49.432;8.680;2022-09-09T02:29:44;4.17;;;3.97;;
10230;SDS011;62604;49.432;8.680;2022-09-09T02:32:14;4.95;;;4.53;;
10230;SDS011;62604;49.432;8.680;2022-09-09T02:34:45;4.82;;;4.30;;
10230;SDS011;62604;49.432;8.680;2022-09-09T02:37:16;4.47;;;4.18;;
10230;SDS011;62604;49.432;8.680;2022-09-09T02:39:46;4.78;;;4.47;;
10230;SDS011;62604;49.432;8.680;2022-09-09T02:42:13;5.10;;;4.37;;
10230;SDS011;62604;49.432;8.680;2022-09-09T02:44:40;4.57;;;4.15;;
10230;SDS011;62604;49.432;8.680;2022-09-09T02:47:13;4.30;;;3.80;;
10230;SDS011;62604;49.432;8.680;2022-09-09T02:49:52;4.60;;;4.20;;
10230;SDS011;62604;49.432;8.680;2022-09-09T02:52:30;6.65;;;4.03;;
10230;SDS011;62604;49.432;8.680;2022-09-09T02:55:06;4.47;;;4.18;;
10230;SDS011;62604;49.432;8.680;2022-09-09T02:57:41;4.90;;;4.60;;
10230;SDS011;62604;49.432;8.680;2022-09-09T03:00:11;4.80;;;4.50;;
10230;SDS011;62604;49.432;8.680;2022-09-09T03:02:39;7.83;;;4.50;;
10230;SDS011;62604;49.432;8.680;2022-09-09T03:05:07;8.03;;;4.40;;
10230;SDS011;62604;49.432;8.680;2022-09-09T03:07:34;4.47;;;4.00;;
10230;SDS011;62604;49.432;8.680;2022-09-09T03:10:01;4.47;;;4.10;;
10230;SDS011;62604;49.432;8.680;2022-09-09T03:12:29;5.10;;;4.20;;
10230;SDS011;62604;49.432;8.680;2022-09-09T03:14:56;4.50;;;4.10;;
10230;SDS011;62604;49.432;8.680;2022-09-09T03:17:23;4.70;;;4.10;;
10230;SDS011;62604;49.432;8.680;2022-09-09T03:19:51;3.80;;;3.60;;
10230;SDS011;62604;49.432;8.680;2022-09-09T03:22:19;4.37;;;4.07;;
10230;SDS011;62604;49.432;8.680;2022-09-09T03:24:46;4.63;;;4.20;;
10230;SDS011;62604;49.432;8.680;2022-09-09T03:27:13;5.60;;;4.03;;
10230;SDS011;62604;49.432;8.680;2022-09-09T03:29:40;4.77;;;4.13;;
10230;SDS011;62604;49.432;8.680;2022-09-09T03:32:07;4.10;;;3.90;;
10230;SDS011;62604;49.432;8.680;2022-09-09T03:34:35;4.27;;;4.07;;
10230;SDS011;62604;49.432;8.680;2022-09-09T03:37:07;9.20;;;4.17;;
10230;SDS011;62604;49.432;8.680;2022-09-09T03:39:35;4.10;;;3.80;;
10230;SDS011;62604;49.432;8.680;2022-09-09T03:42:04;4.13;;;3.90;;
10230;SDS011;62604;49.432;8.680;2022-09-09T03:44:31;4.30;;;4.00;;
10230;SDS011;62604;49.432;8.680;2022-09-09T03:46:58;4.37;;;4.00;;
10230;SDS011;62604;49.432;8.680;2022-09-09T03:49:25;4.17;;;3.90;;
10230;SDS011;62604;49.432;8.680;2022-09-09T03:51:53;3.93;;;3.60;;
10230;SDS011;62604;49.432;8.680;2022-09-09T03:54:22;4.17;;;3.80;;
10230;SDS011;62604;49.432;8.680;2022-09-09T03:56:49;4.20;;;3.90;;
10230;SDS011;62604;49.432;8.680;2022-09-09T03:59:16;4.37;;;4.07;;
10230;SDS011;62604;49.432;8.680;2022-09-09T04:01:43;4.33;;;4.00;;
10230;SDS011;62604;49.432;8.680;2022-09-09T04:04:12;4.00;;;3.60;;
10230;SDS011;62604;49.432;8.680;2022-09-09T04:06:39;4.07;;;3.77;;
10230;SDS011;62604;49.432;8.680;2022-09-09T04:09:06;4.03;;;3.30;;
10230;SDS011;62604;49.432;8.680;2022-09-09T04:11:34;4.30;;;4.10;;
10230;SDS011;62604;49.432;8.680;2022-09-09T04:14:01;3.90;;;3.60;;
10230;SDS011;62604;49.432;8.680;2022-09-09T04:16:31;3.90;;;3.70;;
10230;SDS011;62604;49.432;8.680;2022-09-09T04:18:58;4.00;;;3.80;;
10230;SDS011;62604;49.432;8.680;2022-09-09T04:21:26;3.90;;;3.70;;
10230;SDS011;62604;49.432;8.680;2022-09-09T04:23:53;5.97;;;4.03;;
10230;SDS011;62604;49.432;8.680;2022-09-09T04:26:20;4.07;;;3.87;;
10230;SDS011;62604;49.432;8.680;2022-09-09T04:28:48;5.37;;;3.83;;
10230;SDS011;62604;49.432;8.680;2022-09-09T04:31:16;2.83;;;2.40;;
10230;SDS011;62604;49.432;8.680;2022-09-09T04:33:45;4.20;;;3.90;;
10230;SDS011;62604;49.432;8.680;2022-09-09T04:36:12;3.90;;;3.70;;
10230;SDS011;62604;49.432;8.680;2022-09-09T04:38:40;3.80;;;3.60;;
10230;SDS011;62604;49.432;8.680;2022-09-09T04:41:07;3.70;;;3.50;;
10230;SDS011;62604;49.432;8.680;2022-09-09T04:43:36;4.93;;;4.60;;
10230;SDS011;62604;49.432;8.680;2022-09-09T04:46:04;4.07;;;3.77;;
10230;SDS011;62604;49.432;8.680;2022-09-09T04:48:31;4.10;;;3.80;;
10230;SDS011;62604;49.432;8.680;2022-09-09T04:50:59;4.33;;;3.50;;
10230;SDS011;62604;49.432;8.680;2022-09-09T04:53:27;4.20;;;3.83;;
10230;SDS011;62604;49.432;8.680;2022-09-09T04:56:00;4.43;;;3.63;;
10230;SDS011;62604;49.432;8.680;2022-09-09T04:58:28;3.70;;;3.40;;
10230;SDS011;62604;49.432;8.680;2022-09-09T05:01:02;3.90;;;3.63;;
10230;SDS011;62604;49.432;8.680;2022-09-09T05:03:31;4.87;;;3.70;;
10230;SDS011;62604;49.432;8.680;2022-09-09T05:06:02;3.97;;;3.70;;
10230;SDS011;62604;49.432;8.680;2022-09-09T05:08:30;3.90;;;3.70;;
10230;SDS011;62604;49.432;8.680;2022-09-09T05:10:57;4.00;;;3.80;;
10230;SDS011;62604;49.432;8.680;2022-09-09T05:13:25;4.53;;;3.63;;
10230;SDS011;62604;49.432;8.680;2022-09-09T05:15:52;3.90;;;3.70;;
10230;SDS011;62604;49.432;8.680;2022-09-09T05:18:21;4.03;;;3.70;;
10230;SDS011;62604;49.432;8.680;2022-09-09T05:20:48;4.23;;;3.83;;
10230;SDS011;62604;49.432;8.680;2022-09-09T05:23:16;3.90;;;3.70;;
10230;SDS011;62604;49.432;8.680;2022-09-09T05:25:53;4.10;;;3.90;;
10230;SDS011;62604;49.432;8.680;2022-09-09T05:28:22;4.00;;;3.70;;
10230;SDS011;62604;49.432;8.680;2022-09-09T05:30:57;4.10;;;3.80;;
10230;SDS011;62604;49.432;8.680;2022-09-09T05:33:27;4.07;;;3.77;;
10230;SDS011;62604;49.432;8.680;2022-09-09T05:35:55;3.87;;;3.67;;
10230;SDS011;62604;49.432;8.680;2022-09-09T05:38:23;3.70;;;3.50;;
10230;SDS011;62604;49.432;8.680;2022-09-09T05:40:50;4.10;;;3.80;;
10230;SDS011;62604;49.432;8.680;2022-09-09T05:43:18;5.67;;;3.80;;
10230;SDS011;62604;49.432;8.680;2022-09-09T05:45:45;3.70;;;3.50;;
10230;SDS011;62604;49.432;8.680;2022-09-09T05:48:13;3.60;;;3.40;;
10230;SDS011;62604;49.432;8.680;2022-09-09T05:50:42;4.17;;;3.60;;
10230;SDS011;62604;49.432;8.680;2022-09-09T05:53:10;4.00;;;3.70;;
10230;SDS011;62604;49.432;8.680;2022-09-09T05:55:37;4.43;;;3.80;;
10230;SDS011;62604;49.432;8.680;2022-09-09T05:58:04;4.00;;;3.70;;
10230;SDS011;62604;49.432;8.680;2022-09-09T06:00:31;4.13;;;3.63;;
10230;SDS011;62604;49.432;8.680;2022-09-09T06:02:58;4.00;;;3.80;;
10230;SDS011;62604;49.432;8.680;2022-09-09T06:05:25;4.30;;;4.00;;
10230;SDS011;62604;49.432;8.680;2022-09-09T06:07:55;4.00;;;3.70;;
10230;SDS011;62604;49.432;8.680;2022-09-09T06:10:21;4.33;;;3.93;;
10230;SDS011;62604;49.432;8.680;2022-09-09T06:12:48;4.20;;;3.80;;
10230;SDS011;62604;49.432;8.680;2022-09-09T06:15:19;3.80;;;3.50;;
10230;SDS011;62604;49.432;8.680;2022-09-09T06:17:46;3.90;;;3.60;;
10230;SDS011;62604;49.432;8.680;2022-09-09T06:20:14;5.33;;;3.90;;
10230;SDS011;62604;49.432;8.680;2022-09-09T06:22:41;3.93;;;3.73;;
10230;SDS011;62604;49.432;8.680;2022-09-09T06:25:12;3.60;;;3.30;;
10230;SDS011;62604;49.432;8.680;2022-09-09T06:27:39;4.40;;;3.63;;
10230;SDS011;62604;49.432;8.680;2022-09-09T06:30:07;3.63;;;3.43;;
10230;SDS011;62604;49.432;8.680;2022-09-09T06:32:35;3.87;;;3.67;;
10230;SDS011;62604;49.432;8.680;2022-09-09T06:35:03;3.37;;;3.17;;
10230;SDS011;62604;49.432;8.680;2022-09-09T06:37:30;3.90;;;3.60;;
10230;SDS011;62604;49.432;8.680;2022-09-09T06:39:58;3.40;;;3.20;;
10230;SDS011;62604;49.432;8.680;2022-09-09T06:45:53;3.60;;;3.40;;
10230;SDS011;62604;49.432;8.680;2022-09-09T06:48:21;4.03;;;3.73;;
10230;SDS011;62604;49.432;8.680;2022-09-09T06:50:48;3.73;;;3.50;;
10230;SDS011;62604;49.432;8.680;2022-09-09T06:53:16;5.10;;;3.75;;
10230;SDS011;62604;49.432;8.680;2022-09-09T06:55:44;3.80;;;3.60;;
10230;SDS011;62604;49.432;8.680;2022-09-09T06:58:11;4.07;;;3.40;;
10230;SDS011;62604;49.432;8.680;2022-09-09T07:00:38;3.60;;;3.35;;
10230;SDS011;62604;49.432;8.680;2022-09-09T07:03:07;3.63;;;3.40;;
10230;SDS011;62604;49.432;8.680;2022-09-09T07:05:33;3.88;;;3.67;;
10230;SDS011;62604;49.432;8.680;2022-09-09T07:08:01;4.03;;;3.65;;
10230;SDS011;62604;49.432;8.680;2022-09-09T07:10:28;3.95;;;3.58;;
10230;SDS011;62604;49.432;8.680;2022-09-09T07:12:55;4.72;;;3.47;;
10230;SDS011;62604;49.432;8.680;2022-09-09T07:15:22;4.25;;;2.92;;
10230;SDS011;62604;49.432;8.680;2022-09-09T07:17:49;5.65;;;3.58;;
10230;SDS011;62604;49.432;8.680;2022-09-09T07:20:19;5.72;;;3.65;;
10230;SDS011;62604;49.432;8.680;2022-09-09T07:22:46;3.40;;;3.10;;
10230;SDS011;62604;49.432;8.680;2022-09-09T07:25:13;3.60;;;3.40;;
10230;SDS011;62604;49.432;8.680;2022-09-09T07:27:42;3.22;;;3.03;;
10230;SDS011;62604;49.432;8.680;2022-09-09T07:30:10;3.88;;;2.70;;
10230;SDS011;62604;49.432;8.680;2022-09-09T07:32:37;5.50;;;2.15;;
10230;SDS011;62604;49.432;8.680;2022-09-09T07:35:05;2.15;;;2.00;;
10230;SDS011;62604;49.432;8.680;2022-09-09T07:37:35;1.95;;;1.85;;
10230;SDS011;62604;49.432;8.680;2022-09-09T07:40:02;2.03;;;1.92;;
10230;SDS011;62604;49.432;8.680;2022-09-09T07:42:30;1.98;;;1.88;;
10230;SDS011;62604;49.432;8.680;2022-09-09T07:44:57;2.35;;;1.88;;
10230;SDS011;62604;49.432;8.680;2022-09-09T07:47:24;6.13;;;1.88;;
10230;SDS011;62604;49.432;8.680;2022-09-09T07:49:51;1.90;;;1.75;;
10230;SDS011;62604;49.432;8.680;2022-09-09T07:52:18;3.33;;;1.90;;
10230;SDS011;62604;49.432;8.680;2022-09-09T07:54:47;3.08;;;1.90;;
10230;SDS011;62604;49.432;8.680;2022-09-09T07:57:14;4.00;;;1.95;;
10230;SDS011;62604;49.432;8.680;2022-09-09T07:59:41;2.67;;;1.80;;
10230;SDS011;62604;49.432;8.680;2022-09-09T08:02:08;2.63;;;1.70;;
10230;SDS011;62604;49.432;8.680;2022-09-09T08:04:36;1.70;;;1.60;;
10230;SDS011;62604;49.432;8.680;2022-09-09T08:07:03;2.65;;;2.33;;
10230;SDS011;62604;49.432;8.680;2022-09-09T08:09:30;4.35;;;2.00;;
10230;SDS011;62604;49.432;8.680;2022-09-09T08:12:00;4.75;;;2.00;;
10230;SDS011;62604;49.432;8.680;2022-09-09T08:14:28;2.10;;;1.90;;
10230;SDS011;62604;49.432;8.680;2022-09-09T08:16:55;3.38;;;1.90;;
10230;SDS011;62604;49.432;8.680;2022-09-09T08:19:22;3.05;;;2.90;;
10230;SDS011;62604;49.432;8.680;2022-09-09T08:21:49;3.70;;;3.50;;
10230;SDS011;62604;49.432;8.680;2022-09-09T08:24:16;5.25;;;4.00;;
10230;SDS011;62604;49.432;8.680;2022-09-09T08:26:45;6.75;;;3.80;;
10230;SDS011;62604;49.432;8.680;2022-09-09T08:29:15;4.05;;;3.63;;
10230;SDS011;62604;49.432;8.680;2022-09-09T08:31:43;4.32;;;3.78;;
10230;SDS011;62604;49.432;8.680;2022-09-09T08:34:12;3.40;;;3.25;;
10230;SDS011;62604;49.432;8.680;2022-09-09T08:36:41;3.88;;;3.58;;
10230;SDS011;62604;49.432;8.680;2022-09-09T08:39:09;5.93;;;3.80;;
10230;SDS011;62604;49.432;8.680;2022-09-09T08:41:39;4.43;;;3.80;;
10230;SDS011;62604;49.432;8.680;2022-09-09T08:44:22;3.80;;;3.50;;
10230;SDS011;62604;49.432;8.680;2022-09-09T08:46:57;4.13;;;3.60;;
10230;SDS011;62604;49.432;8.680;2022-09-09T08:49:38;3.97;;;3.67;;
10230;SDS011;62604;49.432;8.680;2022-09-09T08:52:16;2.67;;;1.83;;
10230;SDS011;62604;49.432;8.680;2022-09-09T08:54:46;5.90;;;5.30;;
10230;SDS011;62604;49.432;8.680;2022-09-09T08:57:14;4.65;;;2.42;;
10230;SDS011;62604;49.432;8.680;2022-09-09T08:59:48;6.72;;;4.95;;
10230;SDS011;62604;49.432;8.680;2022-09-09T09:02:17;4.28;;;3.63;;
10230;SDS011;62604;49.432;8.680;2022-09-09T09:04:53;5.18;;;3.50;;
10230;SDS011;62604;49.432;8.680;2022-09-09T09:07:36;4.15;;;3.75;;
10230;SDS011;62604;49.432;8.680;2022-09-09T09:10:15;3.28;;;1.92;;
10230;SDS011;62604;49.432;8.680;2022-09-09T09:12:51;3.33;;;1.90;;
10230;SDS011;62604;49.432;8.680;2022-09-09T09:15:21;4.55;;;4.25;;
10230;SDS011;62604;49.432;8.680;2022-09-09T09:17:51;4.05;;;1.90;;
10230;SDS011;62604;49.432;8.680;2022-09-09T09:20:19;2.53;;;1.88;;
10230;SDS011;62604;49.432;8.680;2022-09-09T09:22:52;3.92;;;3.42;;
10230;SDS011;62604;49.432;8.680;2022-09-09T09:25:24;3.15;;;2.80;;
10230;SDS011;62604;49.432;8.680;2022-09-09T09:27:58;2.78;;;2.63;;
10230;SDS011;62604;49.432;8.680;2022-09-09T09:30:28;4.30;;;3.53;;
10230;SDS011;62604;49.432;8.680;2022-09-09T09:33:01;4.20;;;3.90;;
10230;SDS011;62604;49.432;8.680;2022-09-09T09:35:31;5.55;;;3.90;;
10230;SDS011;62604;49.432;8.680;2022-09-09T09:37:58;5.82;;;3.58;;
10230;SDS011;62604;49.432;8.680;2022-09-09T09:40:28;3.88;;;3.58;;
10230;SDS011;62604;49.432;8.680;2022-09-09T09:42:56;3.80;;;3.50;;
10230;SDS011;62604;49.432;8.680;2022-09-09T09:45:31;3.88;;;3.58;;
10230;SDS011;62604;49.432;8.680;2022-09-09T09:48:00;4.22;;;3.80;;
10230;SDS011;62604;49.432;8.680;2022-09-09T09:50:29;4.50;;;4.10;;
10230;SDS011;62604;49.432;8.680;2022-09-09T09:52:57;4.78;;;3.60;;
10230;SDS011;62604;49.432;8.680;2022-09-09T09:55:26;4.75;;;3.80;;
10230;SDS011;62604;49.432;8.680;2022-09-09T09:58:00;3.88;;;3.33;;
10230;SDS011;62604;49.432;8.680;2022-09-09T10:00:32;3.97;;;3.67;;
10230;SDS011;62604;49.432;8.680;2022-09-09T10:03:02;4.00;;;3.63;;
10230;SDS011;62604;49.432;8.680;2022-09-09T10:05:48;3.97;;;3.78;;
10230;SDS011;62604;49.432;8.680;2022-09-09T10:08:16;10.52;;;3.88;;
10230;SDS011;62604;49.432;8.680;2022-09-09T10:10:49;5.13;;;3.92;;
10230;SDS011;62604;49.432;8.680;2022-09-09T10:13:27;4.65;;;4.18;;
10230;SDS011;62604;49.432;8.680;2022-09-09T10:16:03;3.83;;;3.50;;
10230;SDS011;62604;49.432;8.680;2022-09-09T10:18:50;4.95;;;4.03;;
10230;SDS011;62604;49.432;8.680;2022-09-09T10:21:51;4.45;;;4.00;;
10230;SDS011;62604;49.432;8.680;2022-09-09T10:24:34;4.05;;;3.65;;
10230;SDS011;62604;49.432;8.680;2022-09-09T10:27:35;4.90;;;3.80;;
10230;SDS011;62604;49.432;8.680;2022-09-09T10:30:13;4.25;;;3.92;;
10230;SDS011;62604;49.432;8.680;2022-09-09T10:32:49;4.40;;;4.10;;
10230;SDS011;62604;49.432;8.680;2022-09-09T10:35:29;4.70;;;4.40;;
10230;SDS011;62604;49.432;8.680;2022-09-09T10:40:46;4.75;;;4.35;;
10230;SDS011;62604;49.432;8.680;2022-09-09T10:43:36;4.20;;;3.97;;
10230;SDS011;62604;49.432;8.680;2022-09-09T10:46:15;4.38;;;4.07;;
10230;SDS011;62604;49.432;8.680;2022-09-09T10:48:55;5.57;;;4.10;;
10230;SDS011;62604;49.432;8.680;2022-09-09T10:51:40;4.03;;;3.83;;
10230;SDS011;62604;49.432;8.680;2022-09-09T10:54:23;4.32;;;4.00;;
10230;SDS011;62604;49.432;8.680;2022-09-09T10:57:14;4.00;;;3.80;;
10230;SDS011;62604;49.432;8.680;2022-09-09T10:59:50;4.28;;;3.97;;
10230;SDS011;62604;49.432;8.680;2022-09-09T11:02:25;4.47;;;4.10;;
10230;SDS011;62604;49.432;8.680;2022-09-09T11:05:01;4.20;;;4.00;;
10230;SDS011;62604;49.432;8.680;2022-09-09T11:07:38;4.45;;;4.20;;
10230;SDS011;62604;49.432;8.680;2022-09-09T11:10:14;4.45;;;4.15;;
10230;SDS011;62604;49.432;8.680;2022-09-09T11:12:48;4.18;;;3.92;;
10230;SDS011;62604;49.432;8.680;2022-09-09T11:15:20;2.97;;;2.75;;
10230;SDS011;62604;49.432;8.680;2022-09-09T11:17:52;4.07;;;3.88;;
10230;SDS011;62604;49.432;8.680;2022-09-09T11:20:24;5.65;;;4.07;;
10230;SDS011;62604;49.432;8.680;2022-09-09T11:22:54;5.95;;;3.72;;
10230;SDS011;62604;49.432;8.680;2022-09-09T11:25:23;3.15;;;2.95;;
10230;SDS011;62604;49.432;8.680;2022-09-09T11:27:57;3.00;;;2.80;;
10230;SDS011;62604;49.432;8.680;2022-09-09T11:30:43;3.67;;;2.72;;
10230;SDS011;62604;49.432;8.680;2022-09-09T11:36:24;4.40;;;4.10;;
10230;SDS011;62604;49.432;8.680;2022-09-09T11:39:07;4.25;;;3.90;;
10230;SDS011;62604;49.432;8.680;2022-09-09T11:41:53;4.50;;;3.80;;
10230;SDS011;62604;49.432;8.680;2022-09-09T11:44:32;3.92;;;3.72;;
10230;SDS011;62604;49.432;8.680;2022-09-09T11:46:59;5.68;;;4.32;;
10230;SDS011;62604;49.432;8.680;2022-09-09T11:49:26;4.40;;;4.00;;
10230;SDS011;62604;49.432;8.680;2022-09-09T11:51:57;4.20;;;3.90;;
10230;SDS011;62604;49.432;8.680;2022-09-09T11:54:33;4.20;;;4.00;;
10230;SDS011;62604;49.432;8.680;2022-09-09T11:57:16;4.68;;;4.28;;
10230;SDS011;62604;49.432;8.680;2022-09-09T11:59:51;4.75;;;4.05;;
10230;SDS011;62604;49.432;8.680;2022-09-09T12:02:21;4.25;;;3.95;;
10230;SDS011;62604;49.432;8.680;2022-09-09T12:04:54;3.95;;;3.60;;
10230;SDS011;62604;49.432;8.680;2022-09-09T12:07:31;4.53;;;4.13;;
10230;SDS011;62604;49.432;8.680;2022-09-09T12:10:04;4.22;;;3.90;;
10230;SDS011;62604;49.432;8.680;2022-09-09T12:12:45;4.40;;;3.97;;
10230;SDS011;62604;49.432;8.680;2022-09-09T12:15:19;5.70;;;4.28;;
10230;SDS011;62604;49.432;8.680;2022-09-09T12:17:49;4.50;;;4.10;;
10230;SDS011;62604;49.432;8.680;2022-09-09T12:20:19;4.65;;;4.35;;
10230;SDS011;62604;49.432;8.680;2022-09-09T12:22:59;4.47;;;4.28;;
10230;SDS011;62604;49.432;8.680;2022-09-09T12:26:03;5.03;;;4.53;;
10230;SDS011;62604;49.432;8.680;2022-09-09T12:28:59;4.20;;;4.00;;
10230;SDS011;62604;49.432;8.680;2022-09-09T12:31:34;4.60;;;4.40;;
10230;SDS011;62604;49.432;8.680;2022-09-09T12:34:09;4.50;;;4.20;;
10230;SDS011;62604;49.432;8.680;2022-09-09T12:36:39;5.30;;;4.43;;
10230;SDS011;62604;49.432;8.680;2022-09-09T12:39:14;4.55;;;4.28;;
10230;SDS011;62604;49.432;8.680;2022-09-09T12:41:50;4.63;;;4.20;;
10230;SDS011;62604;49.432;8.680;2022-09-09T12:44:23;4.45;;;4.20;;
10230;SDS011;62604;49.432;8.680;2022-09-09T12:46:50;4.68;;;4.43;;
10230;SDS011;62604;49.432;8.680;2022-09-09T12:49:27;4.90;;;4.60;;
10230;SDS011;62604;49.432;8.680;2022-09-09T12:51:59;4.55;;;4.15;;
10230;SDS011;62604;49.432;8.680;2022-09-09T12:54:31;4.60;;;4.20;;
10230;SDS011;62604;49.432;8.680;2022-09-09T12:57:00;4.35;;;4.05;;
10230;SDS011;62604;49.432;8.680;2022-09-09T12:59:34;5.22;;;4.30;;
10230;SDS011;62604;49.432;8.680;2022-09-09T13:02:11;4.53;;;4.28;;
10230;SDS011;62604;49.432;8.680;2022-09-09T13:04:43;5.05;;;4.80;;
10230;SDS011;62604;49.432;8.680;2022-09-09T13:07:12;4.68;;;4.47;;
10230;SDS011;62604;49.432;8.680;2022-09-09T13:09:42;5.47;;;4.50;;
10230;SDS011;62604;49.432;8.680;2022-09-09T13:12:12;4.78;;;4.57;;
10230;SDS011;62604;49.432;8.680;2022-09-09T13:14:43;4.90;;;4.60;;
10230;SDS011;62604;49.432;8.680;2022-09-09T13:17:17;5.03;;;4.50;;
10230;SDS011;62604;49.432;8.680;2022-09-09T13:19:46;4.82;;;4.45;;
10230;SDS011;62604;49.432;8.680;2022-09-09T13:22:20;4.60;;;4.40;;
10230;SDS011;62604;49.432;8.680;2022-09-09T13:24:59;5.18;;;4.80;;
10230;SDS011;62604;49.432;8.680;2022-09-09T13:27:32;4.85;;;4.55;;
10230;SDS011;62604;49.432;8.680;2022-09-09T13:32:47;4.95;;;4.57;;
10230;SDS011;62604;49.432;8.680;2022-09-09T13:35:26;4.90;;;4.60;;
10230;SDS011;62604;49.432;8.680;2022-09-09T13:37:53;4.60;;;4.30;;
10230;SDS011;62604;49.432;8.680;2022-09-09T13:40:21;4.70;;;4.50;;
10230;SDS011;62604;49.432;8.680;2022-09-09T13:42:51;4.40;;;4.20;;
10230;SDS011;62604;49.432;8.680;2022-09-09T13:45:22;4.30;;;4.10;;
10230;SDS011;62604;49.432;8.680;2022-09-09T13:47:51;4.32;;;4.13;;
10230;SDS011;62604;49.432;8.680;2022-09-09T13:50:21;4.30;;;4.10;;
10230;SDS011;62604;49.432;8.680;2022-09-09T13:52:54;4.07;;;3.88;;
10230;SDS011;62604;49.432;8.680;2022-09-09T13:55:25;4.45;;;4.10;;
10230;SDS011;62604;49.432;8.680;2022-09-09T13:57:54;4.85;;;4.57;;
10230;SDS011;62604;49.432;8.680;2022-09-09T14:00:23;4.78;;;4.57;;
10230;SDS011;62604;49.432;8.680;2022-09-09T14:02:50;5.07;;;4.88;;
10230;SDS011;62604;49.432;8.680;2022-09-09T14:05:20;5.00;;;4.70;;
10230;SDS011;62604;49.432;8.680;2022-09-09T14:07:49;5.43;;;5.13;;
10230;SDS011;62604;49.432;8.680;2022-09-09T14:10:16;4.70;;;4.50;;
10230;SDS011;62604;49.432;8.680;2022-09-09T14:12:45;4.70;;;4.40;;
10230;SDS011;62604;49.432;8.680;2022-09-09T14:15:12;5.30;;;4.43;;
10230;SDS011;62604;49.432;8.680;2022-09-09T14:17:39;4.70;;;4.30;;
10230;SDS011;62604;49.432;8.680;2022-09-09T14:20:06;4.78;;;4.10;;
10230;SDS011;62604;49.432;8.680;2022-09-09T14:22:35;4.60;;;4.40;;
10230;SDS011;62604;49.432;8.680;2022-09-09T14:25:04;4.20;;;4.00;;
10230;SDS011;62604;49.432;8.680;2022-09-09T14:27:32;4.65;;;3.95;;
10230;SDS011;62604;49.432;8.680;2022-09-09T14:30:00;4.78;;;4.43;;
10230;SDS011;62604;49.432;8.680;2022-09-09T14:32:27;5.47;;;4.20;;
10230;SDS011;62604;49.432;8.680;2022-09-09T14:34:54;5.05;;;4.20;;
10230;SDS011;62604;49.432;8.680;2022-09-09T14:37:21;4.00;;;3.70;;
10230;SDS011;62604;49.432;8.680;2022-09-09T14:39:49;5.00;;;4.55;;
10230;SDS011;62604;49.432;8.680;2022-09-09T14:42:16;3.63;;;3.42;;
10230;SDS011;62604;49.432;8.680;2022-09-09T14:44:43;3.88;;;3.65;;
10230;SDS011;62604;49.432;8.680;2022-09-09T14:47:12;3.92;;;3.70;;
10230;SDS011;62604;49.432;8.680;2022-09-09T14:49:39;4.25;;;3.95;;
10230;SDS011;62604;49.432;8.680;2022-09-09T14:52:06;4.47;;;4.05;;
10230;SDS011;62604;49.432;8.680;2022-09-09T14:54:34;4.50;;;4.10;;
10230;SDS011;62604;49.432;8.680;2022-09-09T14:57:01;5.10;;;4.45;;
10230;SDS011;62604;49.432;8.680;2022-09-09T14:59:28;4.28;;;3.92;;
10230;SDS011;62604;49.432;8.680;2022-09-09T15:01:55;4.30;;;4.10;;
10230;SDS011;62604;49.432;8.680;2022-09-09T15:04:23;4.05;;;3.85;;
10230;SDS011;62604;49.432;8.680;2022-09-09T15:06:50;4.28;;;3.97;;
10230;SDS011;62604;49.432;8.680;2022-09-09T15:09:18;4.00;;;3.80;;
10230;SDS011;62604;49.432;8.680;2022-09-09T15:11:45;4.05;;;3.80;;
10230;SDS011;62604;49.432;8.680;2022-09-09T15:14:12;6.30;;;4.00;;
10230;SDS011;62604;49.432;8.680;2022-09-09T15:16:39;3.97;;;3.72;;
10230;SDS011;62604;49.432;8.680;2022-09-09T15:19:06;3.90;;;3.70;;
10230;SDS011;62604;49.432;8.680;2022-09-09T15:21:36;3.55;;;3.35;;
10230;SDS011;62604;49.432;8.680;2022-09-09T15:24:04;3.80;;;3.60;;